createdAt,value
2022-10-12T00:00:24.778Z,66.83
2022-10-12T00:05:30.125Z,67.41
2022-10-12T00:10:37.275Z,67.51
2022-10-12T00:15:43.688Z,67.73
2022-10-12T00:20:49.127Z,67.89
2022-10-12T00:25:54.511Z,68.00
2022-10-12T00:31:00.525Z,68.46
2022-10-12T00:36:17.547Z,68.58
2022-10-12T00:41:26.144Z,68.70
2022-10-12T00:46:43.695Z,69.02
2022-10-12T00:52:00.468Z,68.94
2022-10-12T00:57:08.684Z,69.30
2022-10-12T01:02:15.227Z,69.30
2022-10-12T01:07:20.676Z,69.71
2022-10-12T01:12:27.668Z,69.99
2022-10-12T01:17:58.600Z,70.07
2022-10-12T01:23:29.231Z,70.34
2022-10-12T01:28:52.783Z,70.57
2022-10-12T01:34:01.230Z,70.92
2022-10-12T01:39:15.541Z,71.17
2022-10-12T01:44:24.195Z,71.08
2022-10-12T01:49:32.641Z,71.12
2022-10-12T01:54:46.562Z,71.60
2022-10-12T01:59:55.060Z,71.71
2022-10-12T02:05:06.118Z,71.54
2022-10-12T02:10:17.436Z,71.49
2022-10-12T02:15:26.067Z,71.85
2022-10-12T02:20:34.090Z,71.73
2022-10-12T02:25:41.523Z,71.81
2022-10-12T02:30:58.882Z,71.81
2022-10-12T02:36:28.319Z,72.15
2022-10-12T02:41:36.744Z,72.08
2022-10-12T02:46:44.230Z,72.23
2022-10-12T02:51:50.392Z,72.12
2022-10-12T02:56:55.848Z,72.42
2022-10-12T03:02:01.379Z,72.57
2022-10-12T03:07:06.846Z,72.34
2022-10-12T03:12:12.311Z,72.24
2022-10-12T03:17:17.766Z,72.37
2022-10-12T03:22:23.234Z,72.31
2022-10-12T03:27:28.754Z,72.08
2022-10-12T03:32:34.549Z,72.31
2022-10-12T03:37:40.316Z,72.14
2022-10-12T03:42:46.337Z,72.58
2022-10-12T03:47:51.744Z,72.51
2022-10-12T03:52:57.303Z,72.29
2022-10-12T03:58:03.865Z,72.29
2022-10-12T04:03:11.121Z,72.30
2022-10-12T04:08:17.447Z,72.40
2022-10-12T04:13:23.828Z,72.27
2022-10-12T04:18:29.351Z,72.04
2022-10-12T04:23:36.305Z,72.23
2022-10-12T04:28:41.792Z,72.16
2022-10-12T04:33:47.848Z,71.96
2022-10-12T04:38:58.440Z,71.88
2022-10-12T04:44:01.388Z,72.00
2022-10-12T04:49:06.926Z,71.98
2022-10-12T04:54:13.025Z,71.98
2022-10-12T04:59:18.562Z,72.02
2022-10-12T05:04:24.202Z,72.06
2022-10-12T05:09:29.749Z,72.17
2022-10-12T05:14:36.407Z,71.60
2022-10-12T05:19:41.861Z,72.09
2022-10-12T05:24:52.751Z,71.95
2022-10-12T05:29:54.621Z,72.06
2022-10-12T05:35:00.171Z,71.99
2022-10-12T05:40:06.271Z,72.10
2022-10-12T05:45:13.294Z,72.02
2022-10-12T05:50:18.892Z,71.96
2022-10-12T05:55:24.339Z,72.42
2022-10-12T06:00:29.806Z,72.18
2022-10-12T06:05:35.274Z,72.24
2022-10-12T06:10:46.549Z,72.56
2022-10-12T06:15:51.972Z,72.81
2022-10-12T06:21:28.499Z,72.45
2022-10-12T06:26:05.036Z,73.07
2022-10-12T06:31:11.353Z,73.06
2022-10-12T06:36:17.135Z,73.17
2022-10-12T06:41:23.545Z,72.58
2022-10-12T06:46:29.338Z,72.71
2022-10-12T06:51:34.860Z,72.48
2022-10-12T06:56:40.554Z,72.27
2022-10-12T07:01:46.113Z,72.12
2022-10-12T07:06:51.771Z,71.93
2022-10-12T07:11:57.221Z,71.72
2022-10-12T07:17:02.671Z,71.57
2022-10-12T07:22:09.439Z,71.30
2022-10-12T07:27:15.029Z,71.19
2022-10-12T07:32:20.812Z,70.87
2022-10-12T07:37:26.411Z,70.79
2022-10-12T07:42:31.862Z,70.79
2022-10-12T07:47:37.707Z,70.65
2022-10-12T07:52:43.509Z,70.38
2022-10-12T07:57:49.071Z,70.18
2022-10-12T08:02:54.512Z,69.51
2022-10-12T08:08:00.386Z,70.21
2022-10-12T08:13:06.530Z,70.45
2022-10-12T08:18:11.957Z,70.27
2022-10-12T08:23:17.403Z,70.22
2022-10-12T08:28:23.936Z,69.70
2022-10-12T08:33:31.013Z,69.51
2022-10-12T08:38:39.375Z,69.71
2022-10-12T08:43:47.800Z,69.35
2022-10-12T08:49:05.440Z,69.22
2022-10-12T08:54:13.869Z,69.11
2022-10-12T08:59:20.596Z,69.00
2022-10-12T09:04:40.692Z,68.65
2022-10-12T09:10:11.785Z,68.71
2022-10-12T09:15:20.208Z,68.72
2022-10-12T09:20:31.466Z,68.36
2022-10-12T09:25:37.153Z,68.01
2022-10-12T09:30:45.587Z,67.53
2022-10-12T09:35:51.745Z,67.54
2022-10-12T09:40:57.258Z,67.32
2022-10-12T09:46:04.878Z,67.07
2022-10-12T09:51:12.054Z,66.30
2022-10-12T09:56:40.243Z,66.71
2022-10-12T10:01:48.717Z,66.14
2022-10-12T10:06:54.583Z,66.07
2022-10-12T10:12:15.019Z,65.76
2022-10-12T10:17:29.587Z,65.92
2022-10-12T10:22:35.118Z,65.73
2022-10-12T10:27:41.652Z,65.52
2022-10-12T10:32:48.646Z,65.59
2022-10-12T10:37:57.365Z,65.30
2022-10-12T10:43:09.634Z,64.96
2022-10-12T10:48:20.878Z,64.17
2022-10-12T10:53:28.416Z,64.05
2022-10-12T10:58:45.837Z,64.32
2022-10-12T11:03:54.365Z,63.43
2022-10-12T11:09:03.966Z,63.61
2022-10-12T11:14:21.834Z,63.42
2022-10-12T11:19:54.990Z,63.07
2022-10-12T11:25:03.583Z,62.07
2022-10-12T11:30:12.233Z,62.17
2022-10-12T11:35:29.690Z,62.33
2022-10-12T11:41:02.409Z,61.87
2022-10-12T11:45:50.864Z,61.58
2022-10-12T11:51:03.910Z,61.49
2022-10-12T11:56:15.225Z,61.64
2022-10-12T12:01:42.600Z,61.09
2022-10-12T12:07:02.258Z,61.45
2022-10-12T12:12:22.907Z,61.96
2022-10-12T12:17:32.338Z,60.33
2022-10-12T12:22:56.177Z,59.76
2022-10-12T12:28:10.292Z,59.35
2022-10-12T12:33:25.093Z,59.26
2022-10-12T12:38:48.201Z,57.06
2022-10-12T12:43:57.093Z,57.31
2022-10-12T12:49:03.621Z,56.61
2022-10-12T12:54:18.047Z,55.93
2022-10-12T12:59:32.402Z,55.73
2022-10-12T13:04:45.816Z,54.88
2022-10-12T13:10:00.801Z,54.17
2022-10-12T13:15:36.783Z,53.75
2022-10-12T13:20:44.654Z,53.87
2022-10-12T13:25:56.942Z,53.10
2022-10-12T13:31:03.581Z,52.64
2022-10-12T13:36:30.725Z,51.83
2022-10-12T13:41:37.127Z,51.71
2022-10-12T13:46:48.346Z,51.50
2022-10-12T13:51:57.027Z,50.87
2022-10-12T14:02:20.793Z,50.40
2022-10-12T14:07:35.493Z,50.08
2022-10-12T14:12:42.430Z,50.04
2022-10-12T14:17:51.785Z,50.02
2022-10-12T14:22:59.375Z,50.16
2022-10-12T14:28:07.756Z,50.06
2022-10-12T14:33:32.617Z,50.14
2022-10-12T14:38:46.972Z,50.54
2022-10-12T14:44:17.623Z,50.51
2022-10-12T14:49:28.992Z,51.06
2022-10-12T14:54:34.581Z,51.29
2022-10-12T14:59:40.189Z,51.76
2022-10-12T15:04:46.377Z,52.13
2022-10-12T15:09:53.199Z,52.01
2022-10-12T15:15:01.267Z,52.55
2022-10-12T15:20:07.578Z,52.75
2022-10-12T15:25:23.143Z,52.89
2022-10-12T15:30:28.942Z,53.08
2022-10-12T15:35:36.923Z,53.33
2022-10-12T15:40:46.192Z,53.64
2022-10-12T15:45:51.835Z,53.72
2022-10-12T15:50:57.440Z,53.81
2022-10-12T15:56:02.865Z,53.93
2022-10-12T16:01:08.486Z,54.12
2022-10-12T16:06:15.119Z,54.40
2022-10-12T16:11:21.345Z,54.46
2022-10-12T16:16:26.856Z,54.75
2022-10-12T16:21:32.298Z,55.04
2022-10-12T16:26:42.654Z,55.32
2022-10-12T16:31:45.068Z,55.51
2022-10-12T16:36:50.587Z,55.65
2022-10-12T16:41:56.785Z,55.90
2022-10-12T16:47:02.411Z,56.06
2022-10-12T16:52:08.572Z,56.15
2022-10-12T16:57:14.463Z,56.38
2022-10-12T17:02:22.355Z,56.43
2022-10-12T17:07:27.804Z,56.61
2022-10-12T17:12:33.195Z,56.89
2022-10-12T17:17:38.625Z,57.11
2022-10-12T17:22:44.406Z,57.25
2022-10-12T17:27:49.878Z,57.62
2022-10-12T17:32:55.342Z,57.78
2022-10-12T17:38:00.861Z,58.03
2022-10-12T17:43:06.378Z,58.24
2022-10-12T17:48:13.533Z,58.20
2022-10-12T17:53:19.215Z,58.50
2022-10-12T17:58:24.929Z,58.70
2022-10-12T18:03:30.597Z,57.16
2022-10-12T18:08:37.046Z,58.36
2022-10-12T18:13:44.106Z,58.84
2022-10-12T18:18:51.562Z,59.13
2022-10-12T18:23:58.024Z,59.31
2022-10-12T18:29:03.609Z,59.62
2022-10-12T18:34:09.209Z,59.75
2022-10-12T18:39:15.426Z,59.73
2022-10-12T18:44:21.439Z,59.83
2022-10-12T18:49:26.895Z,59.85
2022-10-12T18:54:32.338Z,59.91
2022-10-12T18:59:38.951Z,59.99
2022-10-12T19:04:44.570Z,60.01
2022-10-12T19:09:50.082Z,60.10
2022-10-12T19:14:55.535Z,60.13
2022-10-12T19:20:02.995Z,60.25
2022-10-12T19:25:09.563Z,60.38
2022-10-12T19:30:15.762Z,60.25
2022-10-12T19:35:23.594Z,60.49
2022-10-12T19:40:31.097Z,60.47
2022-10-12T19:45:41.517Z,60.48
2022-10-12T19:50:47.372Z,60.68
2022-10-12T19:55:53.104Z,60.68
2022-10-12T20:01:11.968Z,60.78
2022-10-12T20:06:28.666Z,60.83
2022-10-12T20:11:35.867Z,60.99
2022-10-12T20:16:41.416Z,60.88
2022-10-12T20:21:46.859Z,61.02
2022-10-12T20:26:52.454Z,61.10
2022-10-12T20:31:57.830Z,60.84
2022-10-12T20:37:03.221Z,61.17
2022-10-12T20:42:08.787Z,61.07
2022-10-12T20:47:21.520Z,60.99
2022-10-12T20:52:27.306Z,61.12
2022-10-12T20:57:33.097Z,60.92
2022-10-12T21:02:38.815Z,60.91
2022-10-12T21:07:44.342Z,61.02
2022-10-12T21:12:49.789Z,60.98
2022-10-12T21:17:55.234Z,61.02
2022-10-12T21:23:00.726Z,61.06
2022-10-12T21:28:06.313Z,61.09
2022-10-12T21:33:11.854Z,60.90
2022-10-12T21:38:18.311Z,60.99
2022-10-12T21:43:23.812Z,61.09
2022-10-12T21:48:29.256Z,61.01
2022-10-12T21:53:36.495Z,61.09
2022-10-12T21:58:42.008Z,61.09
2022-10-12T22:03:48.458Z,61.06
2022-10-12T22:08:57.199Z,61.08
2022-10-12T22:14:05.529Z,61.13
2022-10-12T22:19:14.477Z,61.18
2022-10-12T22:24:20.798Z,61.25
2022-10-12T22:29:26.245Z,61.23
2022-10-12T22:34:31.841Z,61.35
2022-10-12T22:39:37.295Z,61.24
2022-10-12T22:44:42.805Z,61.25
2022-10-12T22:49:48.268Z,61.39
2022-10-12T22:54:53.911Z,61.42
2022-10-12T22:59:59.683Z,61.43
2022-10-12T23:05:07.540Z,61.58
2022-10-12T23:10:13.073Z,61.58
2022-10-12T23:15:18.709Z,61.69
2022-10-12T23:20:24.448Z,61.81
2022-10-12T23:25:31.023Z,61.79
2022-10-12T23:30:40.743Z,61.84
2022-10-12T23:35:46.262Z,62.06
2022-10-12T23:40:52.016Z,62.08
2022-10-12T23:45:57.627Z,62.31
2022-10-12T23:51:03.145Z,62.38
2022-10-12T23:56:08.953Z,62.43
